Time;durP1;ratioP1;P1;durP2;ratioP2;P2;SDS_P1;SDS_P2;PMS_P1;PMS_P2;Temp;Humidity;BMP_temperature;BMP_pressure;BME280_temperature;BME280_humidity;BME280_pressure;Samples;Min_cycle;Max_cycle;Signal;HPM_P1;HPM_P2
2022/05/14 00:03:40;;;;;;;;;;;13.30;95.30;;;;;;8400397;28;19924;-71
2022/05/14 00:07:42;;;;;;;;;;;13.20;95.50;;;;;;8386375;28;19944;-72
2022/05/14 00:16:04;;;;;;;;;;;13.10;95.30;;;;;;8393614;28;20301;-71
2022/05/14 00:20:06;;;;;;;;;;;13.10;95.70;;;;;;8392856;28;19942;-71
2022/05/14 00:24:08;;;;;;;;;;;13.00;95.60;;;;;;8391343;28;19980;-71
2022/05/14 00:28:10;;;;;;;;;;;12.90;95.30;;;;;;8384401;28;19955;-71
2022/05/14 00:32:11;;;;;;;;;;;12.90;95.50;;;;;;8397708;28;19932;-72
2022/05/14 00:36:14;;;;;;;;;;;12.90;96.10;;;;;;8389007;28;19933;-72
2022/05/14 00:40:21;;;;;;;;;;;12.90;96.00;;;;;;8396284;28;20426;-71
2022/05/14 00:44:23;;;;;;;;;;;12.90;95.90;;;;;;8385396;28;19933;-72
2022/05/14 00:48:29;;;;;;;;;;;12.80;95.90;;;;;;8396461;28;20427;-72
2022/05/14 00:52:31;;;;;;;;;;;12.80;96.10;;;;;;8398035;28;19928;-72
2022/05/14 00:56:39;;;;;;;;;;;12.90;95.90;;;;;;8391471;28;19928;-71
2022/05/14 01:00:40;;;;;;;;;;;12.90;95.90;;;;;;8382437;28;20338;-72
2022/05/14 01:04:43;;;;;;;;;;;12.80;96.20;;;;;;8381972;28;19975;-71
2022/05/14 01:08:47;;;;;;;;;;;12.70;95.80;;;;;;8382341;28;19924;-71
2022/05/14 01:12:56;;;;;;;;;;;12.70;95.80;;;;;;8384692;28;19925;-72
2022/05/14 01:16:57;;;;;;;;;;;12.60;95.80;;;;;;8398016;28;19928;-71
2022/05/14 01:21:00;;;;;;;;;;;12.60;95.90;;;;;;8388867;28;19937;-72
2022/05/14 01:29:49;;;;;;;;;;;12.50;95.80;;;;;;8389192;28;20291;-71
2022/05/14 01:33:50;;;;;;;;;;;12.40;96.00;;;;;;8392376;28;19924;-71
2022/05/14 01:37:52;;;;;;;;;;;12.40;96.00;;;;;;8386208;28;19940;-72
2022/05/14 01:41:54;;;;;;;;;;;12.40;95.90;;;;;;8383119;28;19925;-71
2022/05/14 01:45:55;;;;;;;;;;;12.40;95.90;;;;;;8398743;28;19924;-71
2022/05/14 01:49:57;;;;;;;;;;;12.30;95.90;;;;;;8385386;28;20334;-71
2022/05/14 01:53:59;;;;;;;;;;;12.30;95.90;;;;;;8393583;28;19928;-71
2022/05/14 01:58:36;;;;;;;;;;;12.20;96.40;;;;;;8404633;28;19928;-71
2022/05/14 02:02:22;;;;;;;;;;;12.20;96.30;;;;;;8384348;28;20345;-72
2022/05/14 02:06:25;;;;;;;;;;;12.20;96.20;;;;;;8389375;28;19925;-72
2022/05/14 02:10:27;;;;;;;;;;;12.20;96.20;;;;;;8378149;28;19932;-71
2022/05/14 02:14:30;;;;;;;;;;;12.10;96.20;;;;;;8404796;28;19939;-72
2022/05/14 02:18:32;;;;;;;;;;;12.10;96.20;;;;;;8390636;28;19924;-71
2022/05/14 02:22:33;;;;;;;;;;;12.10;96.20;;;;;;8381630;28;20376;-71
2022/05/14 02:26:35;;;;;;;;;;;12.00;96.20;;;;;;8385315;28;19924;-71
2022/05/14 02:30:37;;;;;;;;;;;12.00;96.20;;;;;;8383658;28;19951;-72
2022/05/14 02:34:39;;;;;;;;;;;12.00;96.30;;;;;;8389121;28;19932;-72
2022/05/14 02:38:40;;;;;;;;;;;12.00;96.40;;;;;;8389243;28;19939;-72
2022/05/14 02:42:42;;;;;;;;;;;12.00;96.40;;;;;;8404553;28;19983;-72
2022/05/14 02:46:44;;;;;;;;;;;11.90;96.40;;;;;;8388922;28;19966;-72
2022/05/14 02:50:45;;;;;;;;;;;11.90;96.40;;;;;;8376615;28;19924;-72
2022/05/14 02:54:47;;;;;;;;;;;11.80;96.40;;;;;;8390469;28;19925;-71
2022/05/14 02:59:07;;;;;;;;;;;11.80;96.40;;;;;;8392013;28;20178;-71
2022/05/14 03:03:09;;;;;;;;;;;11.80;96.70;;;;;;8380394;28;19932;-72
2022/05/14 03:07:11;;;;;;;;;;;11.80;96.80;;;;;;8381423;28;19963;-72
2022/05/14 03:11:13;;;;;;;;;;;11.80;96.70;;;;;;8377250;28;19976;-71
2022/05/14 03:15:14;;;;;;;;;;;11.80;96.80;;;;;;8389389;28;19931;-71
2022/05/14 03:19:17;;;;;;;;;;;11.90;96.80;;;;;;8388293;28;19974;-72
2022/05/14 03:23:18;;;;;;;;;;;11.80;96.80;;;;;;8386317;28;19932;-71
2022/05/14 03:27:20;;;;;;;;;;;11.80;97.10;;;;;;8386026;28;19932;-72
2022/05/14 03:31:22;;;;;;;;;;;11.80;97.00;;;;;;8387219;28;19947;-71
2022/05/14 03:35:23;;;;;;;;;;;11.80;96.90;;;;;;8381644;28;19929;-72
2022/05/14 03:39:25;;;;;;;;;;;11.70;97.40;;;;;;8399563;28;20007;-72
2022/05/14 03:43:27;;;;;;;;;;;11.70;97.80;;;;;;8381253;28;19924;-72
2022/05/14 03:47:29;;;;;;;;;;;11.70;97.60;;;;;;8377884;28;19925;-72
2022/05/14 03:51:30;;;;;;;;;;;11.60;97.40;;;;;;8399271;28;19936;-72
2022/05/14 03:55:32;;;;;;;;;;;11.60;97.50;;;;;;8384485;28;19924;-72
2022/05/14 03:59:34;;;;;;;;;;;11.60;97.50;;;;;;8386225;28;19925;-72
2022/05/14 04:03:36;;;;;;;;;;;11.60;97.60;;;;;;8380506;28;20236;-72
2022/05/14 04:07:37;;;;;;;;;;;11.60;97.60;;;;;;8377871;28;19925;-72
2022/05/14 04:11:39;;;;;;;;;;;11.60;97.60;;;;;;8389379;28;19928;-72
2022/05/14 04:15:41;;;;;;;;;;;11.60;97.70;;;;;;8381565;28;19929;-72
2022/05/14 04:19:43;;;;;;;;;;;11.60;97.80;;;;;;8387619;28;19925;-72
2022/05/14 04:23:44;;;;;;;;;;;11.50;97.60;;;;;;8388511;28;19933;-72
2022/05/14 04:27:46;;;;;;;;;;;11.50;97.70;;;;;;8387893;28;20023;-72
2022/05/14 04:31:48;;;;;;;;;;;11.50;98.00;;;;;;8387155;28;19931;-72
2022/05/14 04:35:50;;;;;;;;;;;11.50;97.90;;;;;;8387200;28;20260;-72
2022/05/14 04:39:51;;;;;;;;;;;11.50;97.80;;;;;;8389452;28;19925;-71
2022/05/14 04:43:53;;;;;;;;;;;11.50;97.90;;;;;;8402154;28;20559;-72
2022/05/14 04:47:54;;;;;;;;;;;11.50;98.10;;;;;;8380541;28;19932;-72
2022/05/14 04:51:56;;;;;;;;;;;11.50;98.10;;;;;;8386469;28;19924;-72
2022/05/14 04:55:58;;;;;;;;;;;11.50;98.00;;;;;;8384251;28;20039;-72
2022/05/14 05:00:00;;;;;;;;;;;11.40;98.50;;;;;;8386718;28;19932;-72
2022/05/14 05:04:02;;;;;;;;;;;11.40;98.50;;;;;;8379493;28;19939;-72
2022/05/14 05:08:04;;;;;;;;;;;11.50;98.70;;;;;;8380027;28;20109;-72
2022/05/14 05:12:06;;;;;;;;;;;11.60;99.00;;;;;;8384453;28;20288;-72
2022/05/14 05:16:07;;;;;;;;;;;11.70;99.10;;;;;;8387427;28;19932;-72
2022/05/14 05:20:09;;;;;;;;;;;11.70;99.20;;;;;;8388304;28;19934;-72
2022/05/14 05:24:11;;;;;;;;;;;11.80;99.40;;;;;;8384740;28;19928;-72
2022/05/14 05:28:13;;;;;;;;;;;11.90;99.50;;;;;;8400114;28;19924;-73
2022/05/14 05:32:15;;;;;;;;;;;11.90;99.90;;;;;;8387023;28;19924;-73
2022/05/14 05:36:16;;;;;;;;;;;12.00;99.90;;;;;;8389406;28;20392;-72
2022/05/14 05:40:18;;;;;;;;;;;12.10;99.90;;;;;;8387872;28;20014;-73
2022/05/14 05:44:20;;;;;;;;;;;12.10;99.90;;;;;;8396345;28;19931;-72
2022/05/14 05:48:21;;;;;;;;;;;12.30;99.90;;;;;;8410332;28;19931;-72
2022/05/14 05:52:24;;;;;;;;;;;12.40;99.90;;;;;;8384272;28;19925;-72
2022/05/14 06:00:47;;;;;;;;;;;12.60;99.90;;;;;;8383627;28;19975;-72
2022/05/14 06:04:50;;;;;;;;;;;12.70;99.90;;;;;;8394407;28;20059;-72
2022/05/14 06:08:51;;;;;;;;;;;12.80;99.90;;;;;;8386514;28;19936;-72
2022/05/14 06:12:53;;;;;;;;;;;12.80;99.90;;;;;;8356605;28;19940;-72
2022/05/14 06:16:55;;;;;;;;;;;12.90;99.90;;;;;;8364183;28;20015;-72
2022/05/14 06:20:56;;;;;;;;;;;13.10;99.90;;;;;;8359946;28;19931;-73
2022/05/14 06:24:58;;;;;;;;;;;13.20;99.90;;;;;;8361695;28;20316;-72
2022/05/14 06:29:00;;;;;;;;;;;13.30;99.90;;;;;;8372681;28;19967;-72
2022/05/14 06:33:03;;;;;;;;;;;13.40;99.90;;;;;;8352630;28;19959;-72
2022/05/14 06:37:04;;;;;;;;;;;13.50;99.90;;;;;;8358997;28;19925;-72
2022/05/14 06:41:07;;;;;;;;;;;13.70;99.90;;;;;;8375267;28;20390;-72
2022/05/14 06:45:09;;;;;;;;;;;13.70;99.90;;;;;;8346591;28;19975;-72
2022/05/14 06:49:12;;;;;;;;;;;13.90;99.90;;;;;;8353041;28;20236;-72
2022/05/14 06:53:14;;;;;;;;;;;14.00;99.90;;;;;;8357312;28;19929;-72
2022/05/14 06:57:16;;;;;;;;;;;14.10;99.90;;;;;;8357103;28;20016;-72
2022/05/14 07:01:19;;;;;;;;;;;14.30;99.90;;;;;;8355892;28;20628;-72
2022/05/14 07:10:02;;;;;;;;;;;14.50;99.90;;;;;;8303172;28;20003;-72
2022/05/14 07:14:05;;;;;;;;;;;14.70;99.90;;;;;;8329949;28;20404;-72
2022/05/14 07:18:06;;;;;;;;;;;14.80;99.90;;;;;;8361289;28;20395;-73
2022/05/14 07:22:11;;;;;;;;;;;14.90;99.90;;;;;;8359930;28;19944;-72
2022/05/14 07:26:13;;;;;;;;;;;15.00;99.90;;;;;;8360911;28;20264;-72
2022/05/14 07:30:14;;;;;;;;;;;15.20;99.90;;;;;;8387085;28;19964;-72
2022/05/14 07:34:16;;;;;;;;;;;15.30;99.90;;;;;;8358601;28;19933;-72
2022/05/14 07:38:18;;;;;;;;;;;15.40;99.90;;;;;;8352479;28;20284;-72
2022/05/14 07:42:31;;;;;;;;;;;15.50;99.90;;;;;;8362729;28;19983;-72
2022/05/14 07:46:34;;;;;;;;;;;15.70;99.90;;;;;;8353406;28;19929;-73
2022/05/14 07:50:35;;;;;;;;;;;15.90;99.90;;;;;;8364004;28;19925;-72
2022/05/14 07:54:37;;;;;;;;;;;16.00;99.90;;;;;;8362879;28;19935;-73
2022/05/14 07:58:39;;;;;;;;;;;16.20;99.90;;;;;;8362379;28;20835;-72
2022/05/14 08:02:43;;;;;;;;;;;16.20;99.90;;;;;;8361705;28;20434;-72
2022/05/14 08:06:44;;;;;;;;;;;16.30;99.90;;;;;;8365723;28;19931;-72
2022/05/14 08:10:48;;;;;;;;;;;16.50;99.90;;;;;;8365801;28;19967;-72
2022/05/14 08:14:50;;;;;;;;;;;16.60;99.90;;;;;;8364852;28;19976;-72
2022/05/14 08:18:52;;;;;;;;;;;16.70;99.90;;;;;;8363842;28;19924;-72
2022/05/14 08:27:13;;;;;;;;;;;16.90;99.90;;;;;;8362989;28;20311;-72
2022/05/14 08:31:15;;;;;;;;;;;17.00;99.90;;;;;;8360886;28;19967;-72
2022/05/14 08:35:17;;;;;;;;;;;17.10;99.90;;;;;;8364858;28;20258;-72
2022/05/14 08:39:19;;;;;;;;;;;17.10;99.90;;;;;;8369630;28;19924;-72
2022/05/14 08:43:32;;;;;;;;;;;17.20;99.90;;;;;;8359438;28;19972;-72
2022/05/14 08:47:36;;;;;;;;;;;17.30;99.90;;;;;;8383587;28;20403;-72
2022/05/14 08:51:42;;;;;;;;;;;17.30;99.90;;;;;;8367292;28;19929;-72
2022/05/14 08:55:49;;;;;;;;;;;17.40;99.90;;;;;;8362634;28;20403;-72
2022/05/14 08:59:55;;;;;;;;;;;17.50;99.90;;;;;;8361197;28;19932;-72
2022/05/14 09:03:57;;;;;;;;;;;17.60;99.90;;;;;;8363363;28;19970;-72
2022/05/14 09:08:01;;;;;;;;;;;17.70;99.90;;;;;;8356268;28;20103;-72
2022/05/14 09:12:03;;;;;;;;;;;17.80;99.90;;;;;;8361954;28;19929;-72
2022/05/14 09:16:05;;;;;;;;;;;17.90;99.90;;;;;;8380945;28;19998;-72
2022/05/14 09:20:07;;;;;;;;;;;18.00;99.90;;;;;;8357962;28;20283;-72
2022/05/14 09:24:16;;;;;;;;;;;18.00;99.90;;;;;;8359969;28;19928;-72
2022/05/14 09:28:35;;;;;;;;;;;18.00;99.90;;;;;;8378504;28;19931;-72
2022/05/14 09:32:43;;;;;;;;;;;18.10;99.90;;;;;;8362601;28;19932;-72
2022/05/14 09:36:48;;;;;;;;;;;18.20;99.90;;;;;;8363476;28;19941;-72
2022/05/14 09:40:51;;;;;;;;;;;18.30;99.90;;;;;;8360500;28;19968;-72
2022/05/14 09:44:54;;;;;;;;;;;18.40;99.90;;;;;;8364581;28;20222;-72
2022/05/14 09:49:04;;;;;;;;;;;18.50;99.90;;;;;;8376662;28;20348;-72
2022/05/14 09:53:06;;;;;;;;;;;18.60;99.90;;;;;;8373034;28;19924;-72
2022/05/14 09:57:16;;;;;;;;;;;18.80;99.90;;;;;;8357666;28;19936;-72
2022/05/14 10:01:21;;;;;;;;;;;18.80;99.90;;;;;;8358049;28;19932;-72
2022/05/14 10:05:32;;;;;;;;;;;18.90;99.90;;;;;;8366839;28;20019;-72
2022/05/14 10:09:46;;;;;;;;;;;19.00;99.90;;;;;;8356572;28;20241;-72
2022/05/14 10:14:06;;;;;;;;;;;19.00;99.90;;;;;;8359015;28;19929;-72
2022/05/14 10:18:20;;;;;;;;;;;19.00;99.90;;;;;;8357987;28;19943;-72
2022/05/14 10:27:17;;;;;;;;;;;19.10;99.90;;;;;;8344416;28;19967;-72
2022/05/14 10:31:23;;;;;;;;;;;19.20;99.90;;;;;;8356525;28;19935;-72
2022/05/14 10:35:27;;;;;;;;;;;19.40;99.90;;;;;;8356796;28;20023;-72
2022/05/14 10:39:34;;;;;;;;;;;19.50;99.90;;;;;;8356635;28;20300;-72
2022/05/14 10:43:52;;;;;;;;;;;19.40;99.90;;;;;;8359395;28;20368;-72
2022/05/14 10:48:00;;;;;;;;;;;19.50;99.90;;;;;;8357922;28;19924;-72
2022/05/14 10:52:01;;;;;;;;;;;19.60;99.90;;;;;;8358074;28;19933;-72
2022/05/14 10:56:03;;;;;;;;;;;19.70;99.90;;;;;;8368085;28;20480;-72
2022/05/14 11:00:15;;;;;;;;;;;19.80;99.90;;;;;;8392050;27;19925;-73
2022/05/14 11:04:25;;;;;;;;;;;19.90;99.90;;;;;;8358571;28;19959;-72
2022/05/14 11:08:35;;;;;;;;;;;19.90;99.90;;;;;;8357832;28;19932;-72
2022/05/14 11:12:37;;;;;;;;;;;19.90;99.90;;;;;;8363124;28;19932;-72
2022/05/14 11:16:44;;;;;;;;;;;19.90;99.90;;;;;;8363287;28;19976;-72
2022/05/14 11:20:56;;;;;;;;;;;19.80;99.90;;;;;;8360703;28;20031;-71
2022/05/14 11:25:09;;;;;;;;;;;19.70;99.90;;;;;;8358202;28;20368;-72
2022/05/14 11:29:12;;;;;;;;;;;19.80;99.90;;;;;;8355398;28;20019;-72
2022/05/14 11:33:23;;;;;;;;;;;20.10;99.90;;;;;;8361327;28;19924;-72
2022/05/14 11:37:28;;;;;;;;;;;20.30;99.90;;;;;;8366401;28;19929;-71
2022/05/14 11:41:31;;;;;;;;;;;20.50;99.90;;;;;;8360115;28;19924;-72
2022/05/14 11:45:33;;;;;;;;;;;20.60;99.90;;;;;;8352522;28;19947;-72
2022/05/14 11:49:38;;;;;;;;;;;20.60;99.90;;;;;;8355738;28;19936;-72
2022/05/14 11:53:42;;;;;;;;;;;20.70;99.90;;;;;;8372815;28;20360;-72
2022/05/14 11:57:45;;;;;;;;;;;20.80;99.90;;;;;;8359171;28;19932;-71
2022/05/14 12:01:48;;;;;;;;;;;20.90;99.90;;;;;;8355710;28;19956;-72
2022/05/14 12:05:54;;;;;;;;;;;20.70;99.90;;;;;;8361259;28;19924;-72
2022/05/14 12:10:06;;;;;;;;;;;20.60;99.90;;;;;;8357744;28;20356;-72
2022/05/14 12:14:12;;;;;;;;;;;20.50;99.90;;;;;;8358729;28;19971;-72
2022/05/14 12:18:13;;;;;;;;;;;20.50;99.90;;;;;;8350571;28;19966;-72
2022/05/14 12:22:15;;;;;;;;;;;20.50;99.90;;;;;;8351538;28;19963;-72
2022/05/14 12:26:21;;;;;;;;;;;20.50;99.90;;;;;;8356881;28;19928;-72
2022/05/14 12:34:43;;;;;;;;;;;20.90;99.90;;;;;;8356265;28;20360;-71
2022/05/14 12:38:45;;;;;;;;;;;21.00;99.90;;;;;;8376259;28;20634;-71
2022/05/14 12:42:47;;;;;;;;;;;21.20;99.90;;;;;;8360673;28;19924;-72
2022/05/14 12:46:54;;;;;;;;;;;21.30;99.90;;;;;;8353261;28;19928;-72
2022/05/14 12:50:57;;;;;;;;;;;21.50;99.90;;;;;;8358434;28;19927;-71
2022/05/14 12:55:01;;;;;;;;;;;21.50;99.90;;;;;;8361147;28;19921;-71
2022/05/14 12:59:02;;;;;;;;;;;21.40;99.90;;;;;;8365110;28;20019;-71
2022/05/14 13:03:18;;;;;;;;;;;21.30;99.90;;;;;;8369512;28;19971;-71
2022/05/14 13:07:21;;;;;;;;;;;21.30;99.90;;;;;;8385308;28;19924;-72
2022/05/14 13:11:24;;;;;;;;;;;21.40;99.90;;;;;;8373889;28;20388;-72
2022/05/14 13:15:38;;;;;;;;;;;21.60;99.90;;;;;;8362359;28;19925;-71
2022/05/14 13:19:40;;;;;;;;;;;21.70;99.90;;;;;;8398893;27;19921;-72
2022/05/14 13:23:51;;;;;;;;;;;21.80;99.90;;;;;;8367135;28;19924;-72
2022/05/14 13:28:07;;;;;;;;;;;21.90;99.90;;;;;;8356297;28;19921;-72
2022/05/14 13:32:21;;;;;;;;;;;21.90;99.90;;;;;;8364828;28;19924;-71
2022/05/14 13:40:52;;;;;;;;;;;22.10;99.90;;;;;;8368932;28;19924;-71
2022/05/14 13:44:59;;;;;;;;;;;22.20;99.90;;;;;;8384735;28;19920;-72
2022/05/14 13:49:02;;;;;;;;;;;22.20;99.90;;;;;;8356697;28;19924;-72
2022/05/14 13:53:06;;;;;;;;;;;22.20;99.90;;;;;;8358593;28;20271;-71
2022/05/14 13:57:13;;;;;;;;;;;22.20;99.90;;;;;;8366107;28;19928;-71
2022/05/14 14:01:33;;;;;;;;;;;22.10;99.90;;;;;;8360916;28;19927;-71
2022/05/14 14:05:36;;;;;;;;;;;22.20;99.90;;;;;;8360718;28;20304;-72
2022/05/14 14:09:38;;;;;;;;;;;22.20;99.90;;;;;;8359996;28;19920;-71
2022/05/14 14:13:40;;;;;;;;;;;22.30;99.90;;;;;;8357428;28;20031;-71
2022/05/14 14:17:43;;;;;;;;;;;22.40;99.90;;;;;;8355014;28;19925;-71
2022/05/14 14:21:45;;;;;;;;;;;22.50;99.90;;;;;;8354025;28;19928;-71
2022/05/14 14:25:46;;;;;;;;;;;22.50;99.90;;;;;;8352508;28;20000;-72
2022/05/14 14:29:48;;;;;;;;;;;22.50;99.10;;;;;;8354820;28;19920;-72
2022/05/14 14:33:50;;;;;;;;;;;22.70;99.80;;;;;;8355841;28;19924;-71
2022/05/14 14:37:51;;;;;;;;;;;22.70;98.60;;;;;;8353836;28;19973;-71
2022/05/14 14:41:54;;;;;;;;;;;22.80;99.90;;;;;;8354758;28;19924;-71
2022/05/14 14:45:56;;;;;;;;;;;22.80;99.40;;;;;;8371160;28;19951;-71
2022/05/14 14:49:58;;;;;;;;;;;22.70;99.30;;;;;;8359797;28;19967;-71
2022/05/14 14:54:00;;;;;;;;;;;22.70;99.00;;;;;;8356535;28;20292;-72
2022/05/14 14:58:02;;;;;;;;;;;22.60;98.70;;;;;;8360514;28;19924;-71
2022/05/14 15:02:10;;;;;;;;;;;22.60;98.70;;;;;;8352337;28;19931;-71
2022/05/14 15:06:15;;;;;;;;;;;22.50;98.60;;;;;;8354867;28;19929;-72
2022/05/14 15:10:17;;;;;;;;;;;22.40;98.60;;;;;;8363780;28;20374;-72
2022/05/14 15:14:21;;;;;;;;;;;22.30;98.20;;;;;;8370294;28;19921;-71
2022/05/14 15:18:22;;;;;;;;;;;22.20;98.30;;;;;;8364281;28;20364;-71
2022/05/14 15:22:25;;;;;;;;;;;22.10;98.20;;;;;;8371698;28;19971;-71
2022/05/14 15:26:26;;;;;;;;;;;22.30;98.50;;;;;;8360633;28;19935;-72
2022/05/14 15:30:29;;;;;;;;;;;22.50;98.50;;;;;;8371282;28;20288;-71
2022/05/14 15:34:31;;;;;;;;;;;22.90;98.80;;;;;;8356103;28;19925;-71
2022/05/14 15:38:32;;;;;;;;;;;23.20;98.70;;;;;;8358060;28;19931;-71
2022/05/14 15:42:37;;;;;;;;;;;23.60;98.80;;;;;;8356166;28;20323;-72
2022/05/14 15:46:39;;;;;;;;;;;23.90;98.70;;;;;;8362254;28;19928;-72
2022/05/14 15:50:41;;;;;;;;;;;24.20;98.50;;;;;;8358565;28;19979;-71
2022/05/14 15:54:42;;;;;;;;;;;24.50;98.60;;;;;;8366078;28;20300;-71
2022/05/14 15:58:44;;;;;;;;;;;24.90;98.60;;;;;;8356451;28;19928;-71
2022/05/14 16:02:46;;;;;;;;;;;25.30;98.70;;;;;;8360197;28;20431;-71
2022/05/14 16:06:47;;;;;;;;;;;25.90;98.80;;;;;;8363393;28;19932;-71
2022/05/14 16:19:30;;;;;;;;;;;26.60;97.80;;;;;;8366984;28;19920;-71
2022/05/14 16:23:32;;;;;;;;;;;26.70;97.90;;;;;;8364163;28;20375;-71
2022/05/14 16:27:33;;;;;;;;;;;26.80;97.80;;;;;;8367342;28;19935;-71
2022/05/14 16:31:35;;;;;;;;;;;26.90;97.50;;;;;;8366836;28;19921;-71
2022/05/14 16:35:37;;;;;;;;;;;27.20;97.80;;;;;;8361244;28;19974;-71
2022/05/14 16:39:38;;;;;;;;;;;27.40;97.20;;;;;;8354465;28;19959;-71
2022/05/14 16:43:40;;;;;;;;;;;27.40;96.90;;;;;;8358457;28;19964;-71
2022/05/14 16:47:42;;;;;;;;;;;27.30;96.80;;;;;;8370240;28;19995;-71
2022/05/14 16:51:43;;;;;;;;;;;27.40;97.00;;;;;;8365067;28;19929;-71
2022/05/14 16:55:45;;;;;;;;;;;27.50;97.20;;;;;;8390366;28;19932;-71
2022/05/14 16:59:47;;;;;;;;;;;27.70;97.00;;;;;;8369413;28;20367;-71
2022/05/14 17:03:48;;;;;;;;;;;27.80;97.00;;;;;;8379424;28;19929;-71
2022/05/14 17:07:50;;;;;;;;;;;27.80;97.00;;;;;;8349464;28;19964;-71
2022/05/14 17:11:52;;;;;;;;;;;27.90;97.20;;;;;;8356080;28;19935;-72
2022/05/14 17:15:53;;;;;;;;;;;27.80;97.10;;;;;;8365149;28;21714;-72
2022/05/14 17:19:56;;;;;;;;;;;27.70;97.00;;;;;;8366937;28;19924;-71
2022/05/14 17:24:00;;;;;;;;;;;27.50;96.70;;;;;;8358726;28;19975;-71
2022/05/14 17:28:02;;;;;;;;;;;27.30;96.60;;;;;;8356164;28;20387;-71
2022/05/14 17:32:03;;;;;;;;;;;27.10;96.40;;;;;;8361431;28;20299;-71
2022/05/14 17:36:09;;;;;;;;;;;26.80;96.20;;;;;;8376561;28;20035;-71
2022/05/14 17:40:14;;;;;;;;;;;26.50;96.00;;;;;;8364303;28;19931;-70
2022/05/14 17:44:16;;;;;;;;;;;26.20;95.60;;;;;;8366646;28;19932;-72
2022/05/14 17:48:18;;;;;;;;;;;25.90;95.30;;;;;;8356388;28;19921;-71
2022/05/14 17:52:20;;;;;;;;;;;25.70;95.00;;;;;;8374039;28;19970;-71
2022/05/14 17:56:21;;;;;;;;;;;25.40;94.70;;;;;;8387070;28;19928;-71
2022/05/14 18:00:24;;;;;;;;;;;25.10;94.30;;;;;;8405485;27;20331;-71
2022/05/14 18:04:26;;;;;;;;;;;24.90;94.10;;;;;;8391198;28;19920;-71
2022/05/14 18:08:28;;;;;;;;;;;24.60;93.70;;;;;;8373541;28;20007;-71
2022/05/14 18:12:29;;;;;;;;;;;24.40;93.50;;;;;;8367479;28;20440;-71
2022/05/14 18:16:32;;;;;;;;;;;24.30;93.40;;;;;;8375718;28;19928;-71
2022/05/14 18:20:33;;;;;;;;;;;24.30;93.40;;;;;;8369402;28;19928;-71
2022/05/14 18:24:35;;;;;;;;;;;24.30;93.50;;;;;;8374231;28;19921;-71
2022/05/14 18:28:39;;;;;;;;;;;24.20;93.30;;;;;;8370450;28;19964;-71
2022/05/14 18:32:51;;;;;;;;;;;24.00;93.00;;;;;;8364972;28;19920;-71
2022/05/14 18:36:55;;;;;;;;;;;23.80;92.60;;;;;;8369538;28;19930;-71
2022/05/14 18:40:57;;;;;;;;;;;23.60;92.30;;;;;;8371432;28;19935;-71
2022/05/14 18:44:58;;;;;;;;;;;23.40;92.10;;;;;;8369654;28;22843;-71
2022/05/14 18:49:00;;;;;;;;;;;23.20;92.00;;;;;;8372131;28;20011;-71
2022/05/14 18:53:01;;;;;;;;;;;23.00;91.80;;;;;;8374441;28;19927;-72
2022/05/14 18:57:03;;;;;;;;;;;22.90;91.70;;;;;;8372308;28;19924;-72
2022/05/14 19:01:06;;;;;;;;;;;22.70;91.50;;;;;;8370973;28;19920;-71
2022/05/14 19:09:27;;;;;;;;;;;22.40;91.20;;;;;;8368451;28;20272;-71
2022/05/14 19:13:32;;;;;;;;;;;22.20;91.10;;;;;;8366332;28;19967;-71
2022/05/14 19:17:36;;;;;;;;;;;22.10;91.00;;;;;;8382931;28;19931;-71
2022/05/14 19:21:38;;;;;;;;;;;21.90;90.90;;;;;;8373616;28;19920;-71
2022/05/14 19:25:40;;;;;;;;;;;21.70;90.80;;;;;;8355510;28;19988;-71
2022/05/14 19:29:42;;;;;;;;;;;21.60;90.70;;;;;;8372971;28;19947;-71
2022/05/14 19:33:44;;;;;;;;;;;21.50;90.70;;;;;;8377435;28;19929;-72
2022/05/14 19:37:54;;;;;;;;;;;21.30;90.60;;;;;;8355651;28;19925;-72
2022/05/14 19:41:57;;;;;;;;;;;21.20;90.60;;;;;;8359752;28;19931;-71
2022/05/14 19:46:00;;;;;;;;;;;21.10;90.50;;;;;;8354702;28;19972;-71
2022/05/14 19:50:03;;;;;;;;;;;21.00;90.50;;;;;;8365272;28;19925;-72
2022/05/14 19:54:05;;;;;;;;;;;20.90;90.50;;;;;;8365635;28;19963;-71
2022/05/14 19:58:11;;;;;;;;;;;20.80;90.50;;;;;;8368103;28;19956;-72
2022/05/14 20:02:13;;;;;;;;;;;20.70;90.50;;;;;;8365298;28;19932;-71
2022/05/14 20:06:14;;;;;;;;;;;20.60;90.40;;;;;;8365930;28;19927;-72
2022/05/14 20:10:18;;;;;;;;;;;20.40;90.50;;;;;;8363079;28;19932;-71
2022/05/14 20:14:25;;;;;;;;;;;20.30;90.50;;;;;;8378836;28;19928;-71
2022/05/14 20:22:47;;;;;;;;;;;20.00;90.60;;;;;;8364188;28;19978;-71
2022/05/14 20:26:49;;;;;;;;;;;19.90;90.90;;;;;;8392564;28;19920;-71
2022/05/14 20:30:51;;;;;;;;;;;19.80;90.60;;;;;;8358224;28;20228;-71
2022/05/14 20:34:52;;;;;;;;;;;19.70;90.70;;;;;;8363014;28;19920;-71
2022/05/14 20:38:54;;;;;;;;;;;19.50;90.90;;;;;;8361765;28;20364;-72
2022/05/14 20:42:55;;;;;;;;;;;19.40;90.80;;;;;;8352451;28;19940;-71
2022/05/14 20:46:57;;;;;;;;;;;19.20;90.80;;;;;;8357858;28;19920;-72
2022/05/14 20:50:59;;;;;;;;;;;19.10;90.80;;;;;;8361108;28;19993;-71
2022/05/14 20:55:00;;;;;;;;;;;18.90;90.80;;;;;;8361249;28;20696;-71
2022/05/14 20:59:03;;;;;;;;;;;18.90;90.90;;;;;;8356395;28;19936;-72
2022/05/14 21:03:05;;;;;;;;;;;18.80;90.90;;;;;;8360382;28;19932;-72
2022/05/14 21:07:09;;;;;;;;;;;18.70;90.90;;;;;;8379999;28;19935;-72
2022/05/14 21:11:11;;;;;;;;;;;18.60;90.90;;;;;;8384187;28;19931;-71
2022/05/14 21:15:17;;;;;;;;;;;18.60;91.00;;;;;;8395553;28;19943;-71
2022/05/14 21:19:20;;;;;;;;;;;18.50;90.90;;;;;;8368894;28;20332;-71
2022/05/14 21:23:22;;;;;;;;;;;18.50;90.90;;;;;;8380586;28;20050;-72
2022/05/14 21:27:24;;;;;;;;;;;18.40;90.90;;;;;;8383115;28;19947;-71
2022/05/14 21:31:25;;;;;;;;;;;18.30;91.00;;;;;;8376181;28;19932;-71
2022/05/14 21:39:49;;;;;;;;;;;18.20;91.00;;;;;;8380891;28;20291;-71
2022/05/14 21:43:50;;;;;;;;;;;18.20;91.10;;;;;;8347076;28;1049109;-71
2022/05/14 21:47:53;;;;;;;;;;;18.10;91.10;;;;;;8378298;28;19992;-72
2022/05/14 21:51:54;;;;;;;;;;;18.00;91.00;;;;;;8384588;28;19924;-72
2022/05/14 21:55:56;;;;;;;;;;;18.00;91.00;;;;;;8386380;28;20380;-71
2022/05/14 21:59:58;;;;;;;;;;;17.90;90.90;;;;;;8371619;28;19927;-72
2022/05/14 22:04:01;;;;;;;;;;;17.90;90.90;;;;;;8384962;28;19921;-72
2022/05/14 22:08:04;;;;;;;;;;;17.90;90.90;;;;;;8376059;28;19925;-72
2022/05/14 22:12:06;;;;;;;;;;;17.80;90.90;;;;;;8383923;28;19927;-72
2022/05/14 22:16:08;;;;;;;;;;;17.70;90.90;;;;;;8378288;28;19925;-72
2022/05/14 22:20:11;;;;;;;;;;;17.70;90.90;;;;;;8381964;28;19947;-72
2022/05/14 22:24:13;;;;;;;;;;;17.60;90.80;;;;;;8399411;28;19924;-72
2022/05/14 22:28:15;;;;;;;;;;;17.60;90.90;;;;;;8375987;28;19925;-72
2022/05/14 22:32:16;;;;;;;;;;;17.60;90.90;;;;;;8378826;28;20295;-72
2022/05/14 22:36:18;;;;;;;;;;;17.60;90.90;;;;;;8386480;28;20410;-72
2022/05/14 22:44:40;;;;;;;;;;;17.60;90.90;;;;;;8376109;28;19964;-72
2022/05/14 22:48:42;;;;;;;;;;;17.50;90.90;;;;;;8372651;28;19928;-72
2022/05/14 22:52:43;;;;;;;;;;;17.50;90.90;;;;;;8368301;28;19936;-72
2022/05/14 22:56:45;;;;;;;;;;;17.40;90.90;;;;;;8387053;28;19943;-72
2022/05/14 23:00:50;;;;;;;;;;;17.40;91.00;;;;;;8373283;28;19935;-72
2022/05/14 23:04:51;;;;;;;;;;;17.30;91.00;;;;;;8378649;28;19927;-72
2022/05/14 23:08:53;;;;;;;;;;;17.30;91.00;;;;;;8386904;28;20368;-72
2022/05/14 23:12:55;;;;;;;;;;;17.20;91.00;;;;;;8375811;28;19965;-72
2022/05/14 23:16:56;;;;;;;;;;;17.20;91.00;;;;;;8379508;28;19920;-72
2022/05/14 23:20:58;;;;;;;;;;;17.10;91.00;;;;;;8384242;28;19974;-72
2022/05/14 23:25:08;;;;;;;;;;;17.10;91.00;;;;;;8373987;28;19927;-72
2022/05/14 23:29:09;;;;;;;;;;;17.00;91.00;;;;;;8372587;28;19927;-71
2022/05/14 23:33:11;;;;;;;;;;;17.00;91.10;;;;;;8380632;28;20537;-72
2022/05/14 23:37:13;;;;;;;;;;;16.90;91.10;;;;;;8377437;28;19928;-72
2022/05/14 23:41:17;;;;;;;;;;;16.80;91.00;;;;;;8371448;28;19920;-72
2022/05/14 23:45:21;;;;;;;;;;;16.80;91.10;;;;;;8374641;28;20008;-72
2022/05/14 23:49:22;;;;;;;;;;;16.70;91.00;;;;;;8389917;28;19920;-72
2022/05/14 23:53:25;;;;;;;;;;;16.70;91.00;;;;;;8376290;28;19927;-72
2022/05/14 23:57:29;;;;;;;;;;;16.60;91.00;;;;;;8377254;28;19931;-72
